Naples, Utah
Current Conditions -  °F | °C
As of 4:24 AM on Thursday 18 Dec 2014 (Local Time) from KVEL Reporting Station
Overcast Overcast  
Wind Chill: 18°   Ceiling: 400
Heat Index: 25°   Visibility: 7mi
Dew Point: 23°   Wind: 6mph
Humidity: 92%   Direction: 120°ESE
Pressure: 30.12"   Gusts: NA
Location:  40.1055°N, 109.498°W
Report Text: KVEL 181124Z AUTO 12005KT 7SM OVC004 M04/M05 A3012 RMK AO2 T10391050
Loading
Personal Weather Stations






























Interactive Weather Map New forecast layout! Learn more

10-Day Weather Forecast

Advertisements
Track Severe Weather on mobile